SAVY/PMY METAR and TAF weather

Enter ICAO airport designator
Station Type Date Time Source
SAVY METAR 2019/06/14 17:15 UTC NOAA

SAVY 141715Z 23018KT 4000 DZ FEW008 SCT012 OVC030 08/07 Q1016


Station Type Date Time Source
SAVY Decoded METAR 2019/06/14 17:15 UTC NOAA

Puerto Madryn, CHT, Argentina (SAVY) 42-45-33S 065-06-10W
Jun 14, 2019 - 01:15 PM EDT / 2019.06.14 1715 UTC
Wind: from the SW (230 degrees) at 21 MPH (18 KT):0
Visibility: 2 mile(s):0
Sky conditions: overcast
Weather: drizzle
Temperature: 46 F (8 C)
Dew Point: 44 F (7 C)
Relative Humidity: 93%
Pressure (altimeter): 30.00 in. Hg (1016 hPa)
ob: SAVY 141715Z 23018KT 4000 DZ FEW008 SCT012 OVC030 08/07 Q1016
cycle: 17

Station Type Date Time Source
SAVY TAF UTC NOAA

Error!

Example: see airport list